sensor_id;sensor_type;location;lat;lon;timestamp;temperature;humidity
15262;DHT22;7733;51.554;13.590;2023-04-15T00:01:19;7.80;99.90
15262;DHT22;7733;51.554;13.590;2023-04-15T00:03:45;7.80;99.90
15262;DHT22;7733;51.554;13.590;2023-04-15T00:06:12;7.80;99.90
15262;DHT22;7733;51.554;13.590;2023-04-15T00:08:38;7.80;99.90
15262;DHT22;7733;51.554;13.590;2023-04-15T00:11:04;7.80;99.90
15262;DHT22;7733;51.554;13.590;2023-04-15T00:13:33;7.80;99.90
15262;DHT22;7733;51.554;13.590;2023-04-15T00:15:59;7.80;99.90
15262;DHT22;7733;51.554;13.590;2023-04-15T00:18:25;7.80;99.90
15262;DHT22;7733;51.554;13.590;2023-04-15T00:20:51;7.80;99.90
15262;DHT22;7733;51.554;13.590;2023-04-15T00:23:18;7.70;99.90
15262;DHT22;7733;51.554;13.590;2023-04-15T00:25:43;7.70;99.90
15262;DHT22;7733;51.554;13.590;2023-04-15T00:28:09;7.80;99.90
15262;DHT22;7733;51.554;13.590;2023-04-15T00:30:35;7.80;99.90
15262;DHT22;7733;51.554;13.590;2023-04-15T00:33:01;7.80;99.90
15262;DHT22;7733;51.554;13.590;2023-04-15T00:35:28;7.80;99.90
15262;DHT22;7733;51.554;13.590;2023-04-15T00:37:57;7.80;99.90
15262;DHT22;7733;51.554;13.590;2023-04-15T00:40:23;7.80;99.90
15262;DHT22;7733;51.554;13.590;2023-04-15T00:42:50;7.80;99.90
15262;DHT22;7733;51.554;13.590;2023-04-15T00:45:16;7.80;99.90
15262;DHT22;7733;51.554;13.590;2023-04-15T00:47:43;7.80;99.90
15262;DHT22;7733;51.554;13.590;2023-04-15T00:50:10;7.80;99.90
15262;DHT22;7733;51.554;13.590;2023-04-15T00:52:37;7.80;99.90
15262;DHT22;7733;51.554;13.590;2023-04-15T00:55:04;7.80;99.90
15262;DHT22;7733;51.554;13.590;2023-04-15T00:57:31;7.80;99.90
15262;DHT22;7733;51.554;13.590;2023-04-15T00:59:57;7.80;99.90
15262;DHT22;7733;51.554;13.590;2023-04-15T01:02:23;7.80;99.90
15262;DHT22;7733;51.554;13.590;2023-04-15T01:04:49;7.80;99.90
15262;DHT22;7733;51.554;13.590;2023-04-15T01:07:15;7.90;99.90
15262;DHT22;7733;51.554;13.590;2023-04-15T01:09:41;7.90;99.90
15262;DHT22;7733;51.554;13.590;2023-04-15T01:12:13;7.90;99.90
15262;DHT22;7733;51.554;13.590;2023-04-15T01:14:42;7.90;99.90
15262;DHT22;7733;51.554;13.590;2023-04-15T01:17:08;7.90;99.90
15262;DHT22;7733;51.554;13.590;2023-04-15T01:19:35;7.90;99.90
15262;DHT22;7733;51.554;13.590;2023-04-15T01:22:02;7.90;99.90
15262;DHT22;7733;51.554;13.590;2023-04-15T01:24:29;7.90;99.90
15262;DHT22;7733;51.554;13.590;2023-04-15T01:26:56;7.90;99.90
15262;DHT22;7733;51.554;13.590;2023-04-15T01:29:22;8.00;99.90
15262;DHT22;7733;51.554;13.590;2023-04-15T01:31:52;8.00;99.90
15262;DHT22;7733;51.554;13.590;2023-04-15T01:34:20;7.90;99.90
15262;DHT22;7733;51.554;13.590;2023-04-15T01:36:46;8.00;99.90
15262;DHT22;7733;51.554;13.590;2023-04-15T01:39:13;8.00;99.90
15262;DHT22;7733;51.554;13.590;2023-04-15T01:41:39;8.00;99.90
15262;DHT22;7733;51.554;13.590;2023-04-15T01:44:06;7.90;99.90
15262;DHT22;7733;51.554;13.590;2023-04-15T01:46:33;8.00;99.90
15262;DHT22;7733;51.554;13.590;2023-04-15T01:48:59;8.00;99.90
15262;DHT22;7733;51.554;13.590;2023-04-15T01:51:25;8.00;99.90
15262;DHT22;7733;51.554;13.590;2023-04-15T01:53:51;8.00;99.90
15262;DHT22;7733;51.554;13.590;2023-04-15T01:56:17;8.00;99.90
15262;DHT22;7733;51.554;13.590;2023-04-15T01:58:43;8.00;99.90
15262;DHT22;7733;51.554;13.590;2023-04-15T02:01:09;8.00;99.90
15262;DHT22;7733;51.554;13.590;2023-04-15T02:03:36;8.10;99.90
15262;DHT22;7733;51.554;13.590;2023-04-15T02:06:02;8.10;99.90
15262;DHT22;7733;51.554;13.590;2023-04-15T02:08:29;8.10;99.90
15262;DHT22;7733;51.554;13.590;2023-04-15T02:10:54;8.10;99.90
15262;DHT22;7733;51.554;13.590;2023-04-15T02:13:20;8.10;99.90
15262;DHT22;7733;51.554;13.590;2023-04-15T02:15:47;8.10;99.90
15262;DHT22;7733;51.554;13.590;2023-04-15T02:18:15;8.10;99.90
15262;DHT22;7733;51.554;13.590;2023-04-15T02:20:41;8.10;99.90
15262;DHT22;7733;51.554;13.590;2023-04-15T02:23:08;8.10;99.90
15262;DHT22;7733;51.554;13.590;2023-04-15T02:25:34;8.20;99.90
15262;DHT22;7733;51.554;13.590;2023-04-15T02:27:59;8.20;99.90
15262;DHT22;7733;51.554;13.590;2023-04-15T02:30:25;8.20;99.90
15262;DHT22;7733;51.554;13.590;2023-04-15T02:32:51;8.30;99.90
15262;DHT22;7733;51.554;13.590;2023-04-15T02:35:17;8.20;99.90
15262;DHT22;7733;51.554;13.590;2023-04-15T02:37:45;8.20;99.90
15262;DHT22;7733;51.554;13.590;2023-04-15T02:40:11;8.20;99.90
15262;DHT22;7733;51.554;13.590;2023-04-15T02:42:41;8.20;99.90
15262;DHT22;7733;51.554;13.590;2023-04-15T02:45:09;8.20;99.90
15262;DHT22;7733;51.554;13.590;2023-04-15T02:47:36;8.20;99.90
15262;DHT22;7733;51.554;13.590;2023-04-15T02:50:09;8.30;99.90
15262;DHT22;7733;51.554;13.590;2023-04-15T02:52:39;8.30;99.90
15262;DHT22;7733;51.554;13.590;2023-04-15T02:55:06;8.30;99.90
15262;DHT22;7733;51.554;13.590;2023-04-15T02:57:32;8.30;99.90
15262;DHT22;7733;51.554;13.590;2023-04-15T02:59:59;8.30;99.90
15262;DHT22;7733;51.554;13.590;2023-04-15T03:02:25;8.30;99.90
15262;DHT22;7733;51.554;13.590;2023-04-15T03:04:50;8.30;99.90
15262;DHT22;7733;51.554;13.590;2023-04-15T03:07:17;8.30;99.90
15262;DHT22;7733;51.554;13.590;2023-04-15T03:09:44;8.40;99.90
15262;DHT22;7733;51.554;13.590;2023-04-15T03:12:10;8.40;99.90
15262;DHT22;7733;51.554;13.590;2023-04-15T03:14:36;8.40;99.90
15262;DHT22;7733;51.554;13.590;2023-04-15T03:17:01;8.40;99.90
15262;DHT22;7733;51.554;13.590;2023-04-15T03:19:27;8.40;99.90
15262;DHT22;7733;51.554;13.590;2023-04-15T03:21:53;8.40;99.90
15262;DHT22;7733;51.554;13.590;2023-04-15T03:24:19;8.40;99.90
15262;DHT22;7733;51.554;13.590;2023-04-15T03:26:45;8.50;99.90
15262;DHT22;7733;51.554;13.590;2023-04-15T03:29:11;8.50;99.90
15262;DHT22;7733;51.554;13.590;2023-04-15T03:31:36;8.50;99.90
15262;DHT22;7733;51.554;13.590;2023-04-15T03:34:02;8.50;99.90
15262;DHT22;7733;51.554;13.590;2023-04-15T03:36:29;8.50;99.90
15262;DHT22;7733;51.554;13.590;2023-04-15T03:38:57;8.50;99.90
15262;DHT22;7733;51.554;13.590;2023-04-15T03:41:23;8.50;99.90
15262;DHT22;7733;51.554;13.590;2023-04-15T03:43:49;8.60;99.90
15262;DHT22;7733;51.554;13.590;2023-04-15T03:46:17;8.50;99.90
15262;DHT22;7733;51.554;13.590;2023-04-15T03:48:43;8.60;99.90
15262;DHT22;7733;51.554;13.590;2023-04-15T03:51:08;8.60;99.90
15262;DHT22;7733;51.554;13.590;2023-04-15T03:53:34;8.60;99.90
15262;DHT22;7733;51.554;13.590;2023-04-15T03:56:00;8.60;99.90
15262;DHT22;7733;51.554;13.590;2023-04-15T03:58:26;8.60;99.90
15262;DHT22;7733;51.554;13.590;2023-04-15T04:00:51;8.70;99.90
15262;DHT22;7733;51.554;13.590;2023-04-15T04:03:17;8.70;99.90
15262;DHT22;7733;51.554;13.590;2023-04-15T04:05:43;8.70;99.90
15262;DHT22;7733;51.554;13.590;2023-04-15T04:08:09;8.70;99.90
15262;DHT22;7733;51.554;13.590;2023-04-15T04:10:35;8.80;99.90
15262;DHT22;7733;51.554;13.590;2023-04-15T04:13:01;8.80;99.90
15262;DHT22;7733;51.554;13.590;2023-04-15T04:15:26;8.90;99.90
15262;DHT22;7733;51.554;13.590;2023-04-15T04:17:52;8.90;99.90
15262;DHT22;7733;51.554;13.590;2023-04-15T04:20:18;8.90;99.90
15262;DHT22;7733;51.554;13.590;2023-04-15T04:22:43;9.00;99.90
15262;DHT22;7733;51.554;13.590;2023-04-15T04:25:10;9.00;99.90
15262;DHT22;7733;51.554;13.590;2023-04-15T04:27:36;9.00;99.90
15262;DHT22;7733;51.554;13.590;2023-04-15T04:30:02;9.00;99.90
15262;DHT22;7733;51.554;13.590;2023-04-15T04:32:28;9.10;99.90
15262;DHT22;7733;51.554;13.590;2023-04-15T04:34:53;9.10;99.90
15262;DHT22;7733;51.554;13.590;2023-04-15T04:37:20;9.10;99.90
15262;DHT22;7733;51.554;13.590;2023-04-15T04:39:45;9.10;99.90
15262;DHT22;7733;51.554;13.590;2023-04-15T04:42:11;9.20;99.90
15262;DHT22;7733;51.554;13.590;2023-04-15T04:44:37;9.20;99.90
15262;DHT22;7733;51.554;13.590;2023-04-15T04:47:03;9.30;99.90
15262;DHT22;7733;51.554;13.590;2023-04-15T04:49:29;9.20;99.90
15262;DHT22;7733;51.554;13.590;2023-04-15T04:51:54;9.20;99.90
15262;DHT22;7733;51.554;13.590;2023-04-15T04:54:20;9.20;99.90
15262;DHT22;7733;51.554;13.590;2023-04-15T04:56:46;9.20;99.90
15262;DHT22;7733;51.554;13.590;2023-04-15T04:59:12;9.30;99.90
15262;DHT22;7733;51.554;13.590;2023-04-15T05:01:38;9.30;99.90
15262;DHT22;7733;51.554;13.590;2023-04-15T05:04:04;9.40;99.90
15262;DHT22;7733;51.554;13.590;2023-04-15T05:06:31;9.40;99.90
15262;DHT22;7733;51.554;13.590;2023-04-15T05:08:57;9.40;99.90
15262;DHT22;7733;51.554;13.590;2023-04-15T05:11:22;9.40;99.90
15262;DHT22;7733;51.554;13.590;2023-04-15T05:13:48;9.30;99.90
15262;DHT22;7733;51.554;13.590;2023-04-15T05:16:14;9.40;99.90
15262;DHT22;7733;51.554;13.590;2023-04-15T05:18:39;9.40;99.90
15262;DHT22;7733;51.554;13.590;2023-04-15T05:21:05;9.40;99.90
15262;DHT22;7733;51.554;13.590;2023-04-15T05:23:32;9.40;99.90
15262;DHT22;7733;51.554;13.590;2023-04-15T05:25:58;9.40;99.90
15262;DHT22;7733;51.554;13.590;2023-04-15T05:28:23;9.50;99.90
15262;DHT22;7733;51.554;13.590;2023-04-15T05:30:49;9.50;99.90
15262;DHT22;7733;51.554;13.590;2023-04-15T05:33:15;9.50;99.90
15262;DHT22;7733;51.554;13.590;2023-04-15T05:35:41;9.40;99.90
15262;DHT22;7733;51.554;13.590;2023-04-15T05:38:07;9.50;99.90
15262;DHT22;7733;51.554;13.590;2023-04-15T05:40:33;9.50;99.90
15262;DHT22;7733;51.554;13.590;2023-04-15T05:42:58;9.50;99.90
15262;DHT22;7733;51.554;13.590;2023-04-15T05:45:24;9.50;99.90
15262;DHT22;7733;51.554;13.590;2023-04-15T05:47:50;9.50;99.90
15262;DHT22;7733;51.554;13.590;2023-04-15T05:50:18;9.50;99.90
15262;DHT22;7733;51.554;13.590;2023-04-15T05:52:45;9.60;99.90
15262;DHT22;7733;51.554;13.590;2023-04-15T05:55:11;9.60;99.90
15262;DHT22;7733;51.554;13.590;2023-04-15T05:57:37;9.70;99.90
15262;DHT22;7733;51.554;13.590;2023-04-15T06:00:04;9.70;99.90
15262;DHT22;7733;51.554;13.590;2023-04-15T06:02:30;9.70;99.90
15262;DHT22;7733;51.554;13.590;2023-04-15T06:04:56;9.70;99.90
15262;DHT22;7733;51.554;13.590;2023-04-15T06:07:22;9.70;99.90
15262;DHT22;7733;51.554;13.590;2023-04-15T06:09:48;9.70;99.90
15262;DHT22;7733;51.554;13.590;2023-04-15T06:12:14;9.70;99.90
15262;DHT22;7733;51.554;13.590;2023-04-15T06:14:41;9.70;99.90
15262;DHT22;7733;51.554;13.590;2023-04-15T06:17:07;9.70;99.90
15262;DHT22;7733;51.554;13.590;2023-04-15T06:19:33;9.70;99.90
15262;DHT22;7733;51.554;13.590;2023-04-15T06:22:01;9.80;99.90
15262;DHT22;7733;51.554;13.590;2023-04-15T06:24:27;9.80;99.90
15262;DHT22;7733;51.554;13.590;2023-04-15T06:26:53;9.80;99.90
15262;DHT22;7733;51.554;13.590;2023-04-15T06:29:19;9.80;99.90
15262;DHT22;7733;51.554;13.590;2023-04-15T06:31:47;9.80;99.90
15262;DHT22;7733;51.554;13.590;2023-04-15T06:34:13;9.80;99.90
15262;DHT22;7733;51.554;13.590;2023-04-15T06:36:39;9.80;99.90
15262;DHT22;7733;51.554;13.590;2023-04-15T06:39:05;9.80;99.90
15262;DHT22;7733;51.554;13.590;2023-04-15T06:41:30;9.90;99.90
15262;DHT22;7733;51.554;13.590;2023-04-15T06:43:56;9.90;99.90
15262;DHT22;7733;51.554;13.590;2023-04-15T06:46:22;9.90;99.90
15262;DHT22;7733;51.554;13.590;2023-04-15T06:48:48;9.90;99.90
15262;DHT22;7733;51.554;13.590;2023-04-15T06:51:13;9.90;99.90
15262;DHT22;7733;51.554;13.590;2023-04-15T06:53:39;9.80;99.90
15262;DHT22;7733;51.554;13.590;2023-04-15T06:56:09;9.90;99.90
15262;DHT22;7733;51.554;13.590;2023-04-15T06:58:35;9.90;99.90
15262;DHT22;7733;51.554;13.590;2023-04-15T07:01:01;9.90;99.90
15262;DHT22;7733;51.554;13.590;2023-04-15T07:03:28;9.90;99.90
15262;DHT22;7733;51.554;13.590;2023-04-15T07:05:54;10.00;99.90
15262;DHT22;7733;51.554;13.590;2023-04-15T07:08:19;10.00;99.90
15262;DHT22;7733;51.554;13.590;2023-04-15T07:10:46;10.00;99.90
15262;DHT22;7733;51.554;13.590;2023-04-15T07:13:12;10.00;99.90
15262;DHT22;7733;51.554;13.590;2023-04-15T07:15:38;10.00;99.90
15262;DHT22;7733;51.554;13.590;2023-04-15T07:18:03;10.00;99.90
15262;DHT22;7733;51.554;13.590;2023-04-15T07:20:29;10.00;99.90
15262;DHT22;7733;51.554;13.590;2023-04-15T07:22:55;10.00;99.90
15262;DHT22;7733;51.554;13.590;2023-04-15T07:25:21;10.00;99.90
15262;DHT22;7733;51.554;13.590;2023-04-15T07:27:47;10.00;99.90
15262;DHT22;7733;51.554;13.590;2023-04-15T07:30:13;10.00;99.90
15262;DHT22;7733;51.554;13.590;2023-04-15T07:32:39;10.00;99.90
15262;DHT22;7733;51.554;13.590;2023-04-15T07:35:05;10.00;99.90
15262;DHT22;7733;51.554;13.590;2023-04-15T07:37:32;10.00;99.90
15262;DHT22;7733;51.554;13.590;2023-04-15T07:39:57;10.00;99.90
15262;DHT22;7733;51.554;13.590;2023-04-15T07:42:23;10.00;99.90
15262;DHT22;7733;51.554;13.590;2023-04-15T07:44:49;10.00;99.90
15262;DHT22;7733;51.554;13.590;2023-04-15T07:47:16;10.10;99.90
15262;DHT22;7733;51.554;13.590;2023-04-15T07:49:41;10.10;99.90
15262;DHT22;7733;51.554;13.590;2023-04-15T07:52:08;10.10;99.90
15262;DHT22;7733;51.554;13.590;2023-04-15T07:54:34;10.10;99.90
15262;DHT22;7733;51.554;13.590;2023-04-15T07:57:00;10.20;99.90
15262;DHT22;7733;51.554;13.590;2023-04-15T07:59:26;10.10;99.90
15262;DHT22;7733;51.554;13.590;2023-04-15T08:01:54;10.20;99.90
15262;DHT22;7733;51.554;13.590;2023-04-15T08:04:20;10.20;99.90
15262;DHT22;7733;51.554;13.590;2023-04-15T08:06:45;10.20;99.90
15262;DHT22;7733;51.554;13.590;2023-04-15T08:09:14;10.20;99.90
15262;DHT22;7733;51.554;13.590;2023-04-15T08:11:40;10.20;99.90
15262;DHT22;7733;51.554;13.590;2023-04-15T08:14:06;10.20;99.90
15262;DHT22;7733;51.554;13.590;2023-04-15T08:16:32;10.20;99.90
15262;DHT22;7733;51.554;13.590;2023-04-15T08:18:57;10.20;99.90
15262;DHT22;7733;51.554;13.590;2023-04-15T08:21:24;10.20;99.90
15262;DHT22;7733;51.554;13.590;2023-04-15T08:23:51;10.30;99.90
15262;DHT22;7733;51.554;13.590;2023-04-15T08:26:19;10.30;99.90
15262;DHT22;7733;51.554;13.590;2023-04-15T08:28:46;10.30;99.90
15262;DHT22;7733;51.554;13.590;2023-04-15T08:31:16;10.40;99.90
15262;DHT22;7733;51.554;13.590;2023-04-15T08:33:43;10.40;99.90
15262;DHT22;7733;51.554;13.590;2023-04-15T08:36:09;10.40;99.90
15262;DHT22;7733;51.554;13.590;2023-04-15T08:38:35;10.30;99.90
15262;DHT22;7733;51.554;13.590;2023-04-15T08:41:08;10.30;99.90
15262;DHT22;7733;51.554;13.590;2023-04-15T08:43:45;10.30;99.90
15262;DHT22;7733;51.554;13.590;2023-04-15T08:46:17;10.40;99.90
15262;DHT22;7733;51.554;13.590;2023-04-15T08:48:46;10.40;99.90
15262;DHT22;7733;51.554;13.590;2023-04-15T08:51:13;10.40;99.90
15262;DHT22;7733;51.554;13.590;2023-04-15T08:53:42;10.40;99.90
15262;DHT22;7733;51.554;13.590;2023-04-15T08:56:09;10.50;99.90
15262;DHT22;7733;51.554;13.590;2023-04-15T08:58:36;10.40;99.90
15262;DHT22;7733;51.554;13.590;2023-04-15T09:01:02;10.50;99.90
15262;DHT22;7733;51.554;13.590;2023-04-15T09:03:29;10.40;99.90
15262;DHT22;7733;51.554;13.590;2023-04-15T09:05:56;10.40;99.90
15262;DHT22;7733;51.554;13.590;2023-04-15T09:08:22;10.40;99.90
15262;DHT22;7733;51.554;13.590;2023-04-15T09:10:48;10.30;99.90
15262;DHT22;7733;51.554;13.590;2023-04-15T09:13:14;10.40;99.90
15262;DHT22;7733;51.554;13.590;2023-04-15T09:15:40;10.40;99.90
15262;DHT22;7733;51.554;13.590;2023-04-15T09:18:06;10.40;99.90
15262;DHT22;7733;51.554;13.590;2023-04-15T09:20:39;10.50;99.90
15262;DHT22;7733;51.554;13.590;2023-04-15T09:23:13;10.40;99.90
15262;DHT22;7733;51.554;13.590;2023-04-15T09:25:41;10.40;99.90
15262;DHT22;7733;51.554;13.590;2023-04-15T09:28:07;10.40;99.90
15262;DHT22;7733;51.554;13.590;2023-04-15T09:30:33;10.40;99.90
15262;DHT22;7733;51.554;13.590;2023-04-15T09:33:01;10.40;99.90
15262;DHT22;7733;51.554;13.590;2023-04-15T09:35:29;10.40;99.90
15262;DHT22;7733;51.554;13.590;2023-04-15T09:38:06;10.30;99.90
15262;DHT22;7733;51.554;13.590;2023-04-15T09:40:39;10.40;99.90
15262;DHT22;7733;51.554;13.590;2023-04-15T09:43:08;10.30;99.90
15262;DHT22;7733;51.554;13.590;2023-04-15T09:45:37;10.30;99.90
15262;DHT22;7733;51.554;13.590;2023-04-15T09:48:17;10.30;99.90
15262;DHT22;7733;51.554;13.590;2023-04-15T09:50:59;10.40;99.90
15262;DHT22;7733;51.554;13.590;2023-04-15T09:53:26;10.40;99.90
15262;DHT22;7733;51.554;13.590;2023-04-15T09:55:58;10.40;99.90
15262;DHT22;7733;51.554;13.590;2023-04-15T09:58:33;10.40;99.90
15262;DHT22;7733;51.554;13.590;2023-04-15T10:01:02;10.30;99.90
15262;DHT22;7733;51.554;13.590;2023-04-15T10:03:30;10.20;99.90
15262;DHT22;7733;51.554;13.590;2023-04-15T10:05:59;10.10;99.90
15262;DHT22;7733;51.554;13.590;2023-04-15T10:08:31;10.20;99.90
15262;DHT22;7733;51.554;13.590;2023-04-15T10:11:00;10.30;99.90
15262;DHT22;7733;51.554;13.590;2023-04-15T10:13:29;10.30;99.90
15262;DHT22;7733;51.554;13.590;2023-04-15T10:16:12;10.30;99.90
15262;DHT22;7733;51.554;13.590;2023-04-15T10:18:46;10.30;99.90
15262;DHT22;7733;51.554;13.590;2023-04-15T10:21:15;10.20;99.90
15262;DHT22;7733;51.554;13.590;2023-04-15T10:23:46;10.20;99.90
15262;DHT22;7733;51.554;13.590;2023-04-15T10:26:12;10.30;99.90
15262;DHT22;7733;51.554;13.590;2023-04-15T10:28:45;10.30;99.90
15262;DHT22;7733;51.554;13.590;2023-04-15T10:31:13;10.30;99.90
15262;DHT22;7733;51.554;13.590;2023-04-15T10:33:40;10.30;99.90
15262;DHT22;7733;51.554;13.590;2023-04-15T10:36:07;10.30;99.90
15262;DHT22;7733;51.554;13.590;2023-04-15T10:44:04;10.40;99.90
15262;DHT22;7733;51.554;13.590;2023-04-15T10:46:44;10.40;99.90
15262;DHT22;7733;51.554;13.590;2023-04-15T10:49:23;10.50;99.90
15262;DHT22;7733;51.554;13.590;2023-04-15T10:51:52;10.50;99.90
15262;DHT22;7733;51.554;13.590;2023-04-15T10:59:37;10.50;99.90
15262;DHT22;7733;51.554;13.590;2023-04-15T11:08:17;10.60;99.90
15262;DHT22;7733;51.554;13.590;2023-04-15T11:15:37;10.70;99.90
15262;DHT22;7733;51.554;13.590;2023-04-15T11:20:54;10.80;99.90
15262;DHT22;7733;51.554;13.590;2023-04-15T11:23:38;10.80;99.90
15262;DHT22;7733;51.554;13.590;2023-04-15T11:26:09;10.70;99.90
15262;DHT22;7733;51.554;13.590;2023-04-15T11:28:44;10.80;99.90
15262;DHT22;7733;51.554;13.590;2023-04-15T11:31:11;10.90;99.90
15262;DHT22;7733;51.554;13.590;2023-04-15T11:33:56;10.90;99.90
15262;DHT22;7733;51.554;13.590;2023-04-15T11:36:29;10.90;99.90
15262;DHT22;7733;51.554;13.590;2023-04-15T11:38:57;11.00;99.90
15262;DHT22;7733;51.554;13.590;2023-04-15T11:41:24;11.10;99.90
15262;DHT22;7733;51.554;13.590;2023-04-15T11:43:50;11.10;99.90
15262;DHT22;7733;51.554;13.590;2023-04-15T11:46:17;11.10;99.90
15262;DHT22;7733;51.554;13.590;2023-04-15T11:48:44;11.00;99.90
15262;DHT22;7733;51.554;13.590;2023-04-15T11:51:12;11.00;99.90
15262;DHT22;7733;51.554;13.590;2023-04-15T11:53:49;11.00;99.90
15262;DHT22;7733;51.554;13.590;2023-04-15T11:56:25;10.90;99.90
15262;DHT22;7733;51.554;13.590;2023-04-15T11:58:56;11.00;99.90
15262;DHT22;7733;51.554;13.590;2023-04-15T12:01:37;11.00;99.90
15262;DHT22;7733;51.554;13.590;2023-04-15T12:04:17;11.00;99.90
15262;DHT22;7733;51.554;13.590;2023-04-15T12:06:45;11.00;99.90
15262;DHT22;7733;51.554;13.590;2023-04-15T12:09:12;11.10;99.90
15262;DHT22;7733;51.554;13.590;2023-04-15T12:14:21;11.20;99.90
15262;DHT22;7733;51.554;13.590;2023-04-15T12:17:05;11.20;99.90
15262;DHT22;7733;51.554;13.590;2023-04-15T12:19:38;11.30;99.90
15262;DHT22;7733;51.554;13.590;2023-04-15T12:22:08;11.50;99.90
15262;DHT22;7733;51.554;13.590;2023-04-15T12:24:40;11.30;99.90
15262;DHT22;7733;51.554;13.590;2023-04-15T12:27:11;11.40;99.90
15262;DHT22;7733;51.554;13.590;2023-04-15T12:29:39;11.50;99.90
15262;DHT22;7733;51.554;13.590;2023-04-15T12:34:51;11.20;99.90
15262;DHT22;7733;51.554;13.590;2023-04-15T12:37:18;11.40;99.90
15262;DHT22;7733;51.554;13.590;2023-04-15T12:39:46;11.40;99.90
15262;DHT22;7733;51.554;13.590;2023-04-15T12:42:14;11.40;99.90
15262;DHT22;7733;51.554;13.590;2023-04-15T12:44:41;11.40;99.90
15262;DHT22;7733;51.554;13.590;2023-04-15T12:47:08;11.40;99.90
15262;DHT22;7733;51.554;13.590;2023-04-15T12:49:35;11.50;99.90
15262;DHT22;7733;51.554;13.590;2023-04-15T12:52:02;11.40;99.90
15262;DHT22;7733;51.554;13.590;2023-04-15T12:54:31;11.40;99.90
15262;DHT22;7733;51.554;13.590;2023-04-15T12:56:58;11.30;99.90
15262;DHT22;7733;51.554;13.590;2023-04-15T12:59:24;11.30;99.90
15262;DHT22;7733;51.554;13.590;2023-04-15T13:01:50;11.40;99.90
15262;DHT22;7733;51.554;13.590;2023-04-15T13:04:18;11.60;99.90
15262;DHT22;7733;51.554;13.590;2023-04-15T13:06:45;11.70;99.90
15262;DHT22;7733;51.554;13.590;2023-04-15T13:09:11;11.70;99.90
15262;DHT22;7733;51.554;13.590;2023-04-15T13:11:37;11.70;99.90
15262;DHT22;7733;51.554;13.590;2023-04-15T13:14:04;11.60;99.90
15262;DHT22;7733;51.554;13.590;2023-04-15T13:16:33;11.70;99.90
15262;DHT22;7733;51.554;13.590;2023-04-15T13:18:59;11.70;99.90
15262;DHT22;7733;51.554;13.590;2023-04-15T13:21:26;11.80;99.90
15262;DHT22;7733;51.554;13.590;2023-04-15T13:23:53;11.80;99.90
15262;DHT22;7733;51.554;13.590;2023-04-15T13:26:20;11.80;99.90
15262;DHT22;7733;51.554;13.590;2023-04-15T13:28:46;11.80;99.90
15262;DHT22;7733;51.554;13.590;2023-04-15T13:31:12;11.70;99.90
15262;DHT22;7733;51.554;13.590;2023-04-15T13:33:38;11.80;99.90
15262;DHT22;7733;51.554;13.590;2023-04-15T13:36:04;11.80;99.90
15262;DHT22;7733;51.554;13.590;2023-04-15T13:38:30;11.70;99.90
15262;DHT22;7733;51.554;13.590;2023-04-15T13:40:56;11.70;99.90
15262;DHT22;7733;51.554;13.590;2023-04-15T13:43:22;11.70;99.90
15262;DHT22;7733;51.554;13.590;2023-04-15T13:45:48;11.60;99.90
15262;DHT22;7733;51.554;13.590;2023-04-15T13:48:14;11.50;99.90
15262;DHT22;7733;51.554;13.590;2023-04-15T13:50:40;11.50;99.90
15262;DHT22;7733;51.554;13.590;2023-04-15T13:53:13;11.60;99.90
15262;DHT22;7733;51.554;13.590;2023-04-15T13:55:38;11.60;99.90
15262;DHT22;7733;51.554;13.590;2023-04-15T13:58:10;11.50;99.90
15262;DHT22;7733;51.554;13.590;2023-04-15T14:00:36;11.50;99.90
15262;DHT22;7733;51.554;13.590;2023-04-15T14:03:02;11.60;99.90
15262;DHT22;7733;51.554;13.590;2023-04-15T14:05:28;11.70;99.90
15262;DHT22;7733;51.554;13.590;2023-04-15T14:07:54;11.50;99.90
15262;DHT22;7733;51.554;13.590;2023-04-15T14:10:20;11.60;99.90
15262;DHT22;7733;51.554;13.590;2023-04-15T14:12:46;11.70;99.90
15262;DHT22;7733;51.554;13.590;2023-04-15T14:15:11;11.80;99.90
15262;DHT22;7733;51.554;13.590;2023-04-15T14:17:37;11.80;99.90
15262;DHT22;7733;51.554;13.590;2023-04-15T14:20:06;11.80;99.90
15262;DHT22;7733;51.554;13.590;2023-04-15T14:22:32;11.70;99.90
15262;DHT22;7733;51.554;13.590;2023-04-15T14:24:58;11.80;99.90
15262;DHT22;7733;51.554;13.590;2023-04-15T14:27:25;11.60;99.90
15262;DHT22;7733;51.554;13.590;2023-04-15T14:29:51;11.60;99.90
15262;DHT22;7733;51.554;13.590;2023-04-15T14:32:18;11.70;99.90
15262;DHT22;7733;51.554;13.590;2023-04-15T14:34:44;11.80;99.90
15262;DHT22;7733;51.554;13.590;2023-04-15T14:37:10;11.80;99.90
15262;DHT22;7733;51.554;13.590;2023-04-15T14:39:36;11.80;99.90
15262;DHT22;7733;51.554;13.590;2023-04-15T14:42:01;11.70;99.90
15262;DHT22;7733;51.554;13.590;2023-04-15T14:44:27;11.70;99.90
15262;DHT22;7733;51.554;13.590;2023-04-15T14:46:53;11.70;99.90
15262;DHT22;7733;51.554;13.590;2023-04-15T14:49:20;11.70;99.90
15262;DHT22;7733;51.554;13.590;2023-04-15T14:51:45;11.70;99.90
15262;DHT22;7733;51.554;13.590;2023-04-15T14:54:11;11.90;99.90
15262;DHT22;7733;51.554;13.590;2023-04-15T14:56:37;11.90;99.90
15262;DHT22;7733;51.554;13.590;2023-04-15T14:59:03;12.00;99.90
15262;DHT22;7733;51.554;13.590;2023-04-15T15:01:28;12.10;99.90
15262;DHT22;7733;51.554;13.590;2023-04-15T15:03:54;12.10;99.90
15262;DHT22;7733;51.554;13.590;2023-04-15T15:06:20;12.00;99.90
15262;DHT22;7733;51.554;13.590;2023-04-15T15:08:48;12.10;99.90
15262;DHT22;7733;51.554;13.590;2023-04-15T15:11:14;11.90;99.90
15262;DHT22;7733;51.554;13.590;2023-04-15T15:13:41;11.80;99.90
15262;DHT22;7733;51.554;13.590;2023-04-15T15:16:07;11.90;99.90
15262;DHT22;7733;51.554;13.590;2023-04-15T15:18:34;12.00;99.90
15262;DHT22;7733;51.554;13.590;2023-04-15T15:21:00;12.10;99.90
15262;DHT22;7733;51.554;13.590;2023-04-15T15:23:26;12.10;99.90
15262;DHT22;7733;51.554;13.590;2023-04-15T15:25:52;12.30;99.90
15262;DHT22;7733;51.554;13.590;2023-04-15T15:28:18;12.40;99.90
15262;DHT22;7733;51.554;13.590;2023-04-15T15:30:43;12.40;99.90
15262;DHT22;7733;51.554;13.590;2023-04-15T15:33:09;12.40;99.90
15262;DHT22;7733;51.554;13.590;2023-04-15T15:35:35;12.40;99.90
15262;DHT22;7733;51.554;13.590;2023-04-15T15:38:01;12.50;99.90
15262;DHT22;7733;51.554;13.590;2023-04-15T15:40:26;12.40;99.90
15262;DHT22;7733;51.554;13.590;2023-04-15T15:42:52;12.20;99.90
15262;DHT22;7733;51.554;13.590;2023-04-15T15:45:18;12.00;99.90
15262;DHT22;7733;51.554;13.590;2023-04-15T15:47:43;12.10;99.90
15262;DHT22;7733;51.554;13.590;2023-04-15T15:50:09;12.10;99.90
15262;DHT22;7733;51.554;13.590;2023-04-15T15:52:37;12.10;99.90
15262;DHT22;7733;51.554;13.590;2023-04-15T15:55:03;12.10;99.90
15262;DHT22;7733;51.554;13.590;2023-04-15T15:57:29;12.10;99.90
15262;DHT22;7733;51.554;13.590;2023-04-15T15:59:55;12.10;99.90
15262;DHT22;7733;51.554;13.590;2023-04-15T16:02:20;12.30;99.90
15262;DHT22;7733;51.554;13.590;2023-04-15T16:04:46;12.30;99.90
15262;DHT22;7733;51.554;13.590;2023-04-15T16:07:12;12.40;99.90